Time;durP1;ratioP1;P1;durP2;ratioP2;P2;SDS_P1;SDS_P2;PMS_P1;PMS_P2;Temp;Humidity;BMP_temperature;BMP_pressure;BME280_temperature;BME280_humidity;BME280_pressure;Samples;Min_cycle;Max_cycle;Signal;HPM_P1;HPM_P2
2023/03/11 00:00:34;;;;;;;0.60;0.60;;;0.10;99.90;;;;;;6217544;23;20019;-76
2023/03/11 00:03:01;;;;;;;0.63;0.63;;;0.30;99.90;;;;;;6215750;23;20016;-76
2023/03/11 00:05:33;;;;;;;0.60;0.60;;;0.20;99.90;;;;;;6217598;23;20067;-76
2023/03/11 00:07:59;;;;;;;0.60;0.60;;;0.40;99.90;;;;;;6215533;23;20095;-76
2023/03/11 00:10:28;;;;;;;0.50;0.50;;;0.40;99.90;;;;;;6215546;23;20023;-75
2023/03/11 00:12:54;;;;;;;0.60;0.60;;;0.50;99.90;;;;;;6216064;23;20020;-76
2023/03/11 00:15:20;;;;;;;0.70;0.70;;;0.30;99.90;;;;;;6217410;23;20008;-76
2023/03/11 00:17:49;;;;;;;0.60;0.60;;;0.50;99.90;;;;;;6217348;23;20330;-76
2023/03/11 00:20:24;;;;;;;0.47;0.47;;;0.50;99.90;;;;;;6217251;23;20013;-76
2023/03/11 00:22:52;;;;;;;0.60;0.60;;;0.50;99.90;;;;;;6217328;23;20005;-76
2023/03/11 00:25:19;;;;;;;0.70;0.70;;;0.50;99.90;;;;;;6217296;23;20009;-76
2023/03/11 00:27:45;;;;;;;0.50;0.50;;;0.50;99.90;;;;;;6215391;23;20012;-76
2023/03/11 00:30:13;;;;;;;0.60;0.60;;;0.50;99.90;;;;;;6217224;23;20017;-76
2023/03/11 00:32:39;;;;;;;0.50;0.50;;;0.50;99.90;;;;;;6217190;23;20334;-76
2023/03/11 00:35:05;;;;;;;0.70;0.70;;;0.50;99.90;;;;;;6215332;23;20047;-76
2023/03/11 00:37:31;;;;;;;0.65;0.65;;;0.50;99.90;;;;;;6216794;23;20008;-76
2023/03/11 00:39:57;;;;;;;0.55;0.55;;;0.50;99.90;;;;;;6216745;23;20012;-75
2023/03/11 00:42:23;;;;;;;0.57;0.57;;;0.50;99.90;;;;;;6217218;23;20334;-75
2023/03/11 00:44:49;;;;;;;0.73;0.73;;;0.40;99.90;;;;;;6215330;23;20016;-76
2023/03/11 00:47:14;;;;;;;0.60;0.60;;;0.40;99.90;;;;;;6214915;23;20027;-76
2023/03/11 00:49:40;;;;;;;0.52;0.52;;;0.50;99.90;;;;;;6216754;23;20013;-76
2023/03/11 00:52:06;;;;;;;0.55;0.55;;;0.50;99.90;;;;;;6215165;23;20025;-76
2023/03/11 00:54:31;;;;;;;0.60;0.60;;;0.40;99.90;;;;;;6216568;23;20009;-76
2023/03/11 00:56:57;;;;;;;0.65;0.65;;;0.30;99.90;;;;;;6217182;23;20024;-76
2023/03/11 00:59:23;;;;;;;0.63;0.63;;;0.40;99.90;;;;;;6217140;23;20381;-76
2023/03/11 01:01:50;;;;;;;0.60;0.60;;;0.30;99.90;;;;;;6215123;23;20012;-77
2023/03/11 01:04:15;;;;;;;0.68;0.68;;;0.30;99.90;;;;;;6215125;23;20469;-77
2023/03/11 01:06:41;;;;;;;0.63;0.63;;;0.30;99.90;;;;;;6214983;23;20013;-77
2023/03/11 01:09:07;;;;;;;0.60;0.60;;;0.40;99.90;;;;;;6216833;23;20428;-76
2023/03/11 01:11:32;;;;;;;0.60;0.60;;;0.40;99.90;;;;;;6215510;23;20009;-76
2023/03/11 01:13:58;;;;;;;0.65;0.65;;;0.40;99.90;;;;;;6216814;23;20011;-76
2023/03/11 01:16:24;;;;;;;0.63;0.63;;;0.40;99.90;;;;;;6214945;23;20063;-76
2023/03/11 01:18:49;;;;;;;0.70;0.70;;;0.40;99.90;;;;;;6214882;23;20079;-76
2023/03/11 01:21:15;;;;;;;0.68;0.68;;;0.30;99.90;;;;;;6214908;23;20088;-75
2023/03/11 01:23:41;;;;;;;0.50;0.50;;;0.30;99.90;;;;;;6216372;23;20090;-74
2023/03/11 01:26:08;;;;;;;0.70;0.70;;;0.30;99.90;;;;;;6216420;23;20449;-73
2023/03/11 01:28:33;;;;;;;0.60;0.60;;;0.20;99.90;;;;;;6214660;23;20040;-73
2023/03/11 01:30:59;;;;;;;0.60;0.60;;;0.20;99.90;;;;;;6216703;23;20019;-73
2023/03/11 01:33:25;;;;;;;0.70;0.70;;;0.20;99.90;;;;;;6214820;23;20052;-75
2023/03/11 01:35:50;;;;;;;0.50;0.50;;;0.30;99.90;;;;;;6214810;23;20091;-75
2023/03/11 01:38:16;;;;;;;0.60;0.60;;;0.20;99.90;;;;;;6216545;23;20311;-75
2023/03/11 01:40:45;;;;;;;0.68;0.68;;;0.40;99.90;;;;;;6214725;23;20107;-75
2023/03/11 01:43:41;;;;;;;0.60;0.60;;;0.30;99.90;;;;;;6217686;23;20019;-75
2023/03/11 01:46:14;;;;;;;0.63;0.60;;;0.30;99.90;;;;;;6214623;23;20115;-74
2023/03/11 01:48:43;;;;;;;0.70;0.70;;;0.30;99.90;;;;;;6214928;23;20082;-74
2023/03/11 01:51:09;;;;;;;0.60;0.60;;;0.20;99.90;;;;;;6214592;23;20024;-74
2023/03/11 01:53:35;;;;;;;0.55;0.55;;;0.20;99.90;;;;;;6214449;23;20021;-74
2023/03/11 01:56:03;;;;;;;0.60;0.60;;;0.20;99.90;;;;;;6216816;23;20008;-74
2023/03/11 01:58:34;;;;;;;0.70;0.70;;;0.20;99.90;;;;;;6214611;23;20017;-74
2023/03/11 02:01:01;;;;;;;0.60;0.60;;;0.10;99.90;;;;;;6216680;23;20013;-74
2023/03/11 02:03:30;;;;;;;0.70;0.70;;;0.10;99.90;;;;;;6215509;23;20008;-75
2023/03/11 02:05:58;;;;;;;0.60;0.60;;;0.10;99.90;;;;;;6216589;23;20008;-75
2023/03/11 02:08:24;;;;;;;0.70;0.70;;;0.10;99.90;;;;;;6216494;23;20016;-75
2023/03/11 02:10:52;;;;;;;0.50;0.50;;;0.10;99.90;;;;;;6214639;23;20318;-75
2023/03/11 02:13:18;;;;;;;0.70;0.70;;;0.10;99.90;;;;;;6214677;23;20019;-75
2023/03/11 02:15:44;;;;;;;0.70;0.70;;;0.10;99.90;;;;;;6214502;23;20044;-75
2023/03/11 02:18:13;;;;;;;0.60;0.60;;;0.20;99.90;;;;;;6189406;23;20012;-74
2023/03/11 02:20:56;;;;;;;0.70;0.70;;;0.20;99.90;;;;;;6214524;23;20016;-75
2023/03/11 02:23:26;;;;;;;0.70;0.70;;;0.30;99.90;;;;;;6214540;23;20017;-75
2023/03/11 02:26:18;;;;;;;0.50;0.50;;;0.30;99.90;;;;;;6216118;23;20013;-75
2023/03/11 02:28:46;;;;;;;0.60;0.60;;;0.20;99.90;;;;;;6215895;23;20131;-75
2023/03/11 02:31:12;;;;;;;0.60;0.60;;;0.20;99.90;;;;;;6216220;23;20016;-74
2023/03/11 02:33:40;;;;;;;0.50;0.50;;;0.20;99.90;;;;;;6216186;23;20005;-74
2023/03/11 02:36:06;;;;;;;0.68;0.68;;;0.20;99.90;;;;;;6216194;23;20070;-75
2023/03/11 02:38:31;;;;;;;0.68;0.68;;;0.20;99.90;;;;;;6240043;23;20369;-75
2023/03/11 02:40:59;;;;;;;0.60;0.60;;;0.10;99.90;;;;;;6216239;23;20433;-74
2023/03/11 02:43:39;;;;;;;0.65;0.65;;;0.00;99.90;;;;;;6215907;23;20493;-75
2023/03/11 02:46:08;;;;;;;0.70;0.70;;;-0.10;99.90;;;;;;6214458;23;20031;-75
2023/03/11 02:48:42;;;;;;;0.60;0.60;;;-0.30;99.90;;;;;;6216221;23;20013;-75
2023/03/11 02:51:08;;;;;;;0.55;0.55;;;-0.30;99.90;;;;;;6215327;23;20009;-75
2023/03/11 02:53:38;;;;;;;0.70;0.70;;;-0.40;99.90;;;;;;6215799;23;20023;-75
2023/03/11 02:56:04;;;;;;;0.60;0.60;;;-0.60;99.90;;;;;;6216196;23;20032;-75
2023/03/11 02:58:30;;;;;;;0.70;0.70;;;-0.60;99.90;;;;;;6216291;23;20303;-75
2023/03/11 03:00:55;;;;;;;0.60;0.60;;;-0.70;99.90;;;;;;6214315;23;20099;-76
2023/03/11 03:03:21;;;;;;;0.50;0.50;;;-0.70;99.90;;;;;;6216107;23;20062;-75
2023/03/11 03:05:47;;;;;;;0.60;0.60;;;-1.00;99.90;;;;;;6216376;23;20357;-75
2023/03/11 03:08:12;;;;;;;0.50;0.50;;;-1.00;99.90;;;;;;6216120;23;20330;-75
2023/03/11 03:10:38;;;;;;;0.70;0.70;;;-1.00;99.90;;;;;;6217289;23;20013;-75
2023/03/11 03:13:04;;;;;;;0.60;0.60;;;-1.10;99.90;;;;;;6218206;23;20071;-75
2023/03/11 03:15:29;;;;;;;0.60;0.60;;;-1.20;99.90;;;;;;6217641;23;20342;-75
2023/03/11 03:17:55;;;;;;;0.50;0.50;;;-1.10;99.90;;;;;;6217980;23;20018;-75
2023/03/11 03:20:21;;;;;;;0.68;0.68;;;-1.10;99.90;;;;;;6241596;23;20008;-75
2023/03/11 03:22:48;;;;;;;0.60;0.60;;;-1.00;99.90;;;;;;6217701;23;20094;-76
2023/03/11 03:25:14;;;;;;;0.60;0.60;;;-1.10;99.90;;;;;;6217970;23;20016;-75
2023/03/11 03:27:40;;;;;;;0.60;0.60;;;-1.20;99.90;;;;;;6216224;23;20012;-76
2023/03/11 03:30:07;;;;;;;0.60;0.60;;;-1.10;99.90;;;;;;6217818;23;20357;-75
2023/03/11 03:32:33;;;;;;;0.63;0.63;;;-1.50;99.90;;;;;;6215906;23;20012;-75
2023/03/11 03:34:59;;;;;;;0.60;0.60;;;-1.70;99.90;;;;;;6217820;23;20342;-76
2023/03/11 03:37:26;;;;;;;0.60;0.60;;;-1.90;99.90;;;;;;6215812;23;20508;-75
2023/03/11 03:39:52;;;;;;;0.63;0.63;;;-2.10;99.90;;;;;;6215794;23;20013;-76
2023/03/11 03:42:19;;;;;;;0.80;0.80;;;-2.20;99.90;;;;;;6216054;23;20019;-75
2023/03/11 03:44:45;;;;;;;0.60;0.60;;;-2.40;99.90;;;;;;6217632;23;20056;-75
2023/03/11 03:47:10;;;;;;;0.60;0.60;;;-2.60;99.90;;;;;;6216738;23;20023;-75
2023/03/11 03:49:37;;;;;;;0.50;0.50;;;-2.80;99.90;;;;;;6215575;23;20040;-75
2023/03/11 03:52:05;;;;;;;0.70;0.70;;;-2.80;99.90;;;;;;6215788;23;20311;-75
2023/03/11 03:54:30;;;;;;;0.57;0.57;;;-2.90;99.90;;;;;;6217179;23;20027;-75
2023/03/11 03:56:57;;;;;;;0.70;0.70;;;-2.90;99.90;;;;;;6217688;23;20016;-76
2023/03/11 03:59:23;;;;;;;0.70;0.70;;;-2.90;99.90;;;;;;6216560;23;20585;-75
2023/03/11 04:01:49;;;;;;;0.52;0.52;;;-2.90;99.90;;;;;;6215967;23;20041;-75
2023/03/11 04:04:14;;;;;;;0.60;0.60;;;-2.90;99.90;;;;;;6240888;23;20088;-75
2023/03/11 04:06:41;;;;;;;0.60;0.60;;;-2.90;99.90;;;;;;6215581;23;20062;-75
2023/03/11 04:09:10;;;;;;;0.60;0.60;;;-3.20;99.90;;;;;;6241217;23;20055;-75
2023/03/11 04:11:36;;;;;;;0.65;0.65;;;-3.30;99.90;;;;;;6217140;23;20081;-75
2023/03/11 04:14:03;;;;;;;0.70;0.70;;;-3.50;99.90;;;;;;6215547;23;20043;-75
2023/03/11 04:16:28;;;;;;;0.60;0.60;;;-3.60;99.90;;;;;;6217388;23;20369;-76
2023/03/11 04:18:54;;;;;;;0.60;0.60;;;-3.90;99.90;;;;;;6217282;23;20020;-76
2023/03/11 04:21:19;;;;;;;0.60;0.60;;;-3.90;99.90;;;;;;6216715;23;20063;-75
2023/03/11 04:23:45;;;;;;;0.73;0.73;;;-4.00;99.90;;;;;;6216259;23;20021;-75
2023/03/11 04:26:11;;;;;;;0.70;0.70;;;-3.90;99.90;;;;;;6217166;23;20088;-75
2023/03/11 04:28:37;;;;;;;0.68;0.68;;;-3.90;99.90;;;;;;6217264;23;20372;-75
2023/03/11 04:31:03;;;;;;;0.70;0.70;;;-3.90;99.90;;;;;;6215346;23;20012;-75
2023/03/11 04:33:29;;;;;;;0.60;0.60;;;-3.90;99.90;;;;;;6217192;23;20008;-75
2023/03/11 04:35:55;;;;;;;0.50;0.50;;;-3.90;99.90;;;;;;6217175;23;20105;-75
2023/03/11 04:38:21;;;;;;;0.80;0.80;;;-3.80;99.90;;;;;;6216849;23;20493;-75
2023/03/11 04:40:47;;;;;;;0.60;0.60;;;-3.70;99.90;;;;;;6217863;23;20055;-75
2023/03/11 04:43:12;;;;;;;0.57;0.57;;;-3.70;99.90;;;;;;6217058;23;20013;-75
2023/03/11 04:45:39;;;;;;;0.60;0.60;;;-3.80;99.90;;;;;;6217180;23;20013;-76
2023/03/11 04:48:05;;;;;;;0.80;0.80;;;-3.90;99.90;;;;;;6215154;23;20044;-75
2023/03/11 04:50:31;;;;;;;0.70;0.70;;;-4.00;99.90;;;;;;6215229;23;20013;-75
2023/03/11 04:52:57;;;;;;;0.70;0.70;;;-4.10;99.90;;;;;;6216859;23;20011;-75
2023/03/11 04:55:22;;;;;;;0.60;0.60;;;-4.00;99.90;;;;;;6216701;23;20369;-75
2023/03/11 04:57:48;;;;;;;0.70;0.70;;;-3.80;99.90;;;;;;6217257;23;20066;-75
2023/03/11 05:00:15;;;;;;;0.68;0.68;;;-3.80;99.90;;;;;;6214956;23;20028;-75
2023/03/11 05:02:41;;;;;;;0.70;0.70;;;-3.60;99.90;;;;;;6214889;23;20048;-75
2023/03/11 05:05:08;;;;;;;0.70;0.70;;;-3.50;99.90;;;;;;6216852;23;20311;-75
2023/03/11 05:07:35;;;;;;;0.73;0.73;;;-3.40;99.90;;;;;;6214897;23;20013;-76
2023/03/11 05:10:01;;;;;;;0.70;0.70;;;-3.40;99.90;;;;;;6216642;23;20020;-75
2023/03/11 05:12:26;;;;;;;0.60;0.60;;;-3.50;99.90;;;;;;6216909;23;20008;-75
2023/03/11 05:14:52;;;;;;;0.63;0.63;;;-3.50;99.90;;;;;;6216790;23;20012;-75
2023/03/11 05:17:18;;;;;;;0.60;0.60;;;-3.50;99.90;;;;;;6214955;23;20023;-75
2023/03/11 05:19:44;;;;;;;0.70;0.70;;;-3.70;99.90;;;;;;6214909;23;20081;-75
2023/03/11 05:22:09;;;;;;;0.50;0.50;;;-3.60;99.90;;;;;;6216727;23;20017;-75
2023/03/11 05:24:36;;;;;;;0.70;0.70;;;-3.60;99.90;;;;;;6214884;23;20035;-75
2023/03/11 05:27:02;;;;;;;0.68;0.68;;;-3.50;99.90;;;;;;6215068;23;20012;-75
2023/03/11 05:29:28;;;;;;;0.50;0.50;;;-3.60;99.90;;;;;;6215284;23;20016;-75
2023/03/11 05:31:53;;;;;;;0.70;0.70;;;-3.60;99.90;;;;;;6216853;23;20453;-75
2023/03/11 05:34:20;;;;;;;0.70;0.70;;;-3.70;99.90;;;;;;6216595;23;20088;-76
2023/03/11 05:36:45;;;;;;;0.60;0.60;;;-3.60;99.90;;;;;;6216709;23;20016;-75
2023/03/11 05:39:11;;;;;;;0.70;0.70;;;-3.50;99.90;;;;;;6214778;23;20013;-75
2023/03/11 05:41:37;;;;;;;0.73;0.73;;;-3.50;99.90;;;;;;6214898;23;20020;-75
2023/03/11 05:44:03;;;;;;;0.80;0.80;;;-3.60;99.90;;;;;;6215180;23;20024;-75
2023/03/11 05:46:29;;;;;;;0.70;0.70;;;-3.50;99.90;;;;;;6216600;23;20012;-75
2023/03/11 05:48:54;;;;;;;0.80;0.80;;;-3.50;99.90;;;;;;6214703;23;20397;-75
2023/03/11 05:51:20;;;;;;;0.70;0.70;;;-3.50;99.90;;;;;;6216370;23;20047;-75
2023/03/11 05:53:48;;;;;;;0.80;0.80;;;-3.50;99.90;;;;;;6216344;23;20005;-75
2023/03/11 05:56:19;;;;;;;0.60;0.60;;;-3.40;99.90;;;;;;6240386;23;20021;-75
2023/03/11 05:58:45;;;;;;;0.70;0.70;;;-3.40;99.90;;;;;;6214915;23;20024;-75
2023/03/11 06:01:13;;;;;;;0.70;0.70;;;-3.40;99.90;;;;;;6189696;23;20020;-75
2023/03/11 06:03:40;;;;;;;0.65;0.65;;;-3.40;99.90;;;;;;6214656;23;20023;-75
2023/03/11 06:06:09;;;;;;;0.60;0.60;;;-3.50;99.90;;;;;;6215116;23;20012;-75
2023/03/11 06:08:35;;;;;;;0.70;0.70;;;-3.50;99.90;;;;;;6214489;23;20024;-75
2023/03/11 06:11:10;;;;;;;0.80;0.80;;;-3.50;99.90;;;;;;6216606;23;20047;-76
2023/03/11 06:13:36;;;;;;;0.70;0.70;;;-3.60;99.90;;;;;;6216545;23;20012;-75
2023/03/11 06:16:03;;;;;;;0.70;0.70;;;-3.60;99.90;;;;;;6214966;23;20091;-75
2023/03/11 06:18:28;;;;;;;0.70;0.70;;;-3.60;99.90;;;;;;6189521;23;20013;-75
2023/03/11 06:20:57;;;;;;;0.60;0.60;;;-3.50;99.90;;;;;;6214466;23;20074;-75
2023/03/11 06:23:23;;;;;;;0.70;0.70;;;-3.50;99.90;;;;;;6215361;23;20326;-75
2023/03/11 06:25:55;;;;;;;0.70;0.70;;;-3.50;99.90;;;;;;6214422;23;20095;-75
2023/03/11 06:28:21;;;;;;;0.68;0.68;;;-3.50;99.90;;;;;;6214453;23;20021;-75
2023/03/11 06:30:47;;;;;;;0.60;0.60;;;-3.60;99.90;;;;;;6214327;23;20005;-75
2023/03/11 06:33:13;;;;;;;0.60;0.60;;;-3.50;99.90;;;;;;6214375;23;20016;-75
2023/03/11 06:35:39;;;;;;;0.70;0.70;;;-3.40;99.90;;;;;;6215859;23;20039;-75
2023/03/11 06:38:05;;;;;;;0.52;0.52;;;-3.30;99.90;;;;;;6214261;23;20013;-75
2023/03/11 06:40:31;;;;;;;0.50;0.50;;;-3.30;99.90;;;;;;6214331;23;20047;-75
2023/03/11 06:42:56;;;;;;;0.60;0.60;;;-3.20;99.90;;;;;;6214448;23;20095;-75
2023/03/11 06:45:22;;;;;;;0.70;0.70;;;-3.20;99.90;;;;;;6217219;23;20013;-75
2023/03/11 06:47:48;;;;;;;0.60;0.60;;;-3.20;99.90;;;;;;6217858;23;20015;-75
2023/03/11 06:50:13;;;;;;;0.60;0.60;;;-3.10;99.90;;;;;;6216313;23;20021;-75
2023/03/11 06:52:39;;;;;;;0.70;0.70;;;-3.10;99.90;;;;;;6218289;23;20059;-76
2023/03/11 06:55:05;;;;;;;0.60;0.60;;;-3.10;99.90;;;;;;6216194;23;20449;-75
2023/03/11 06:57:32;;;;;;;0.68;0.68;;;-3.00;99.90;;;;;;6218432;23;20013;-75
2023/03/11 06:59:57;;;;;;;0.77;0.77;;;-3.00;99.90;;;;;;6216273;23;20027;-75
2023/03/11 07:02:23;;;;;;;0.80;0.80;;;-2.90;99.90;;;;;;6217771;23;20016;-75
2023/03/11 07:04:49;;;;;;;0.68;0.68;;;-2.90;99.90;;;;;;6218121;23;20094;-75
2023/03/11 07:07:15;;;;;;;0.60;0.60;;;-2.80;99.90;;;;;;6218075;23;20023;-75
2023/03/11 07:09:40;;;;;;;0.70;0.70;;;-2.80;99.90;;;;;;6217950;23;20018;-75
2023/03/11 07:12:06;;;;;;;0.70;0.70;;;-2.80;99.90;;;;;;6218242;23;20418;-75
2023/03/11 07:14:32;;;;;;;0.70;0.70;;;-2.70;99.90;;;;;;6216114;23;20009;-75
2023/03/11 07:16:58;;;;;;;0.60;0.60;;;-2.70;99.90;;;;;;6216146;23;20016;-76
2023/03/11 07:19:23;;;;;;;0.70;0.70;;;-2.70;99.90;;;;;;6216059;23;20147;-77
2023/03/11 07:21:49;;;;;;;0.60;0.60;;;-2.70;99.90;;;;;;6215998;23;20319;-75
2023/03/11 07:24:15;;;;;;;0.70;0.70;;;-2.70;99.90;;;;;;6215972;23;20020;-74
2023/03/11 07:26:41;;;;;;;0.60;0.60;;;-2.60;99.90;;;;;;6217710;23;20015;-75
2023/03/11 07:29:07;;;;;;;0.70;0.70;;;-2.50;99.90;;;;;;6217740;23;20373;-75
2023/03/11 07:31:33;;;;;;;0.65;0.65;;;-2.40;99.90;;;;;;6217778;23;20020;-74
2023/03/11 07:34:02;;;;;;;0.70;0.70;;;-2.20;99.90;;;;;;6217853;23;20012;-74
2023/03/11 07:36:28;;;;;;;0.60;0.60;;;-2.30;99.90;;;;;;6190886;23;20008;-77
2023/03/11 07:38:58;;;;;;;0.65;0.65;;;-2.20;99.90;;;;;;6216070;23;20383;-76
2023/03/11 07:41:25;;;;;;;0.75;0.75;;;-2.10;99.90;;;;;;6190750;23;20091;-76
2023/03/11 07:43:54;;;;;;;0.60;0.60;;;-2.10;99.90;;;;;;6241664;23;20043;-76
2023/03/11 07:46:21;;;;;;;0.60;0.60;;;-2.10;99.90;;;;;;6215900;23;20057;-76
2023/03/11 07:48:49;;;;;;;0.70;0.70;;;-2.00;99.90;;;;;;6217593;23;20023;-74
2023/03/11 07:51:24;;;;;;;0.70;0.70;;;-2.00;99.90;;;;;;6215770;23;20023;-75
2023/03/11 07:53:51;;;;;;;0.60;0.60;;;-1.90;99.90;;;;;;6215608;23;20016;-74
2023/03/11 07:56:17;;;;;;;0.70;0.70;;;-1.90;99.90;;;;;;6216132;23;20023;-75
2023/03/11 07:58:44;;;;;;;0.70;0.70;;;-1.90;99.90;;;;;;6217298;23;20507;-75
2023/03/11 08:01:16;;;;;;;0.60;0.60;;;-1.80;99.90;;;;;;6216031;23;20021;-74
2023/03/11 08:03:44;;;;;;;0.80;0.80;;;-1.70;99.90;;;;;;6215617;23;20327;-74
2023/03/11 08:06:19;;;;;;;0.50;0.50;;;-1.60;99.90;;;;;;6216002;23;20011;-74
2023/03/11 08:08:45;;;;;;;0.60;0.60;;;-1.50;99.90;;;;;;6215647;23;20024;-71
2023/03/11 08:11:12;;;;;;;0.70;0.70;;;-1.60;99.90;;;;;;6217090;23;20024;-77
2023/03/11 08:13:41;;;;;;;0.80;0.80;;;-1.60;99.90;;;;;;6215706;23;20016;-71
2023/03/11 08:16:08;;;;;;;0.70;0.70;;;-1.40;99.90;;;;;;6217086;23;20044;-75
2023/03/11 08:18:34;;;;;;;0.60;0.60;;;-1.40;99.90;;;;;;6215557;23;20012;-70
2023/03/11 08:21:07;;;;;;;0.60;0.60;;;-1.40;99.90;;;;;;6215406;23;20087;-69
2023/03/11 08:23:33;;;;;;;0.60;0.60;;;-1.20;99.90;;;;;;6217376;23;20016;-69
2023/03/11 08:26:06;;;;;;;0.70;0.70;;;-1.20;99.90;;;;;;6216373;23;20013;-70
2023/03/11 08:28:32;;;;;;;0.63;0.63;;;-1.10;99.90;;;;;;6217434;23;20013;-70
2023/03/11 08:30:58;;;;;;;0.70;0.70;;;-1.00;99.90;;;;;;6215823;23;20083;-70
2023/03/11 08:33:23;;;;;;;0.50;0.50;;;-1.00;99.90;;;;;;6217282;23;20044;-70
2023/03/11 08:35:49;;;;;;;0.60;0.60;;;-1.00;99.90;;;;;;6190325;23;20009;-71
2023/03/11 08:38:15;;;;;;;0.60;0.60;;;-0.90;99.90;;;;;;6215434;23;20017;-70
2023/03/11 08:40:40;;;;;;;0.55;0.55;;;-0.90;99.90;;;;;;6215238;23;20437;-70
2023/03/11 08:43:06;;;;;;;0.57;0.57;;;-0.70;99.90;;;;;;6217213;23;20047;-70
2023/03/11 08:45:32;;;;;;;0.60;0.60;;;-0.60;99.90;;;;;;6215254;23;20445;-70
2023/03/11 08:47:58;;;;;;;0.65;0.65;;;-0.50;99.90;;;;;;6217181;23;20008;-70
2023/03/11 08:50:24;;;;;;;0.60;0.60;;;-0.50;99.90;;;;;;6215199;23;20334;-69
2023/03/11 08:52:49;;;;;;;0.55;0.55;;;-0.50;99.90;;;;;;6216360;23;20012;-73
2023/03/11 08:55:23;;;;;;;0.70;0.70;;;-0.40;99.90;;;;;;6241005;23;20040;-75
2023/03/11 08:57:49;;;;;;;0.60;0.60;;;-0.20;99.90;;;;;;6190020;23;20020;-74
2023/03/11 09:00:16;;;;;;;0.70;0.70;;;-0.30;99.90;;;;;;6215139;23;20059;-74
2023/03/11 09:02:42;;;;;;;0.50;0.50;;;-0.10;99.90;;;;;;6217019;23;20390;-74
2023/03/11 09:05:08;;;;;;;0.60;0.60;;;0.00;99.90;;;;;;6216997;23;20043;-74
2023/03/11 09:07:34;;;;;;;0.50;0.50;;;0.10;99.90;;;;;;6214756;23;20012;-74
2023/03/11 09:09:59;;;;;;;0.50;0.50;;;0.20;99.90;;;;;;6216838;23;20017;-74
2023/03/11 09:12:25;;;;;;;0.50;0.50;;;0.30;99.90;;;;;;6217374;23;20058;-74
2023/03/11 09:14:51;;;;;;;0.60;0.60;;;0.30;99.90;;;;;;6216801;23;20013;-74
2023/03/11 09:17:16;;;;;;;0.50;0.50;;;0.50;99.90;;;;;;6214985;23;20013;-74
2023/03/11 09:19:42;;;;;;;0.50;0.50;;;0.60;99.90;;;;;;6215127;23;20039;-74
2023/03/11 09:22:08;;;;;;;0.60;0.60;;;0.60;99.90;;;;;;6215019;23;20413;-74
2023/03/11 09:24:34;;;;;;;0.60;0.60;;;0.70;99.90;;;;;;6216970;23;20075;-74
2023/03/11 09:27:00;;;;;;;0.52;0.52;;;0.80;99.90;;;;;;6217032;23;20009;-74
2023/03/11 09:29:26;;;;;;;0.70;0.70;;;0.80;99.90;;;;;;6216863;23;20047;-72
2023/03/11 09:31:52;;;;;;;0.60;0.60;;;1.00;99.90;;;;;;6215245;23;20016;-69
2023/03/11 09:34:18;;;;;;;0.70;0.70;;;0.90;99.90;;;;;;6215135;23;20016;-67
2023/03/11 09:36:44;;;;;;;0.60;0.60;;;1.00;99.90;;;;;;6217224;23;20008;-75
2023/03/11 09:39:09;;;;;;;0.47;0.47;;;1.00;99.90;;;;;;6215990;23;20048;-74
2023/03/11 09:41:45;;;;;;;0.68;0.68;;;1.00;99.90;;;;;;6215137;23;20020;-74
2023/03/11 09:44:21;;;;;;;0.60;0.60;;;0.90;99.90;;;;;;6215060;23;20027;-74
2023/03/11 09:46:55;;;;;;;0.60;0.60;;;1.10;99.90;;;;;;6215010;23;20016;-75
2023/03/11 09:49:26;;;;;;;0.50;0.50;;;1.10;99.90;;;;;;6216637;23;20024;-76
2023/03/11 09:52:02;;;;;;;0.60;0.60;;;1.20;99.90;;;;;;6214822;23;20012;-77
2023/03/11 09:54:33;;;;;;;0.60;0.60;;;1.40;99.90;;;;;;6216528;23;20021;-76
2023/03/11 09:57:01;;;;;;;0.50;0.50;;;1.30;99.90;;;;;;6216794;23;20009;-75
2023/03/11 09:59:31;;;;;;;0.60;0.60;;;1.50;99.90;;;;;;6214814;23;20027;-72
2023/03/11 10:01:58;;;;;;;0.60;0.60;;;1.40;99.90;;;;;;6216412;23;20020;-72
2023/03/11 10:04:31;;;;;;;0.60;0.60;;;1.50;99.90;;;;;;6216550;23;20117;-72
2023/03/11 10:07:00;;;;;;;0.55;0.55;;;1.60;99.90;;;;;;6214702;23;20066;-72
2023/03/11 10:09:45;;;;;;;0.60;0.60;;;1.50;99.90;;;;;;6215968;23;20433;-72
2023/03/11 10:12:35;;;;;;;0.50;0.50;;;1.60;99.90;;;;;;6216507;23;20012;-71
2023/03/11 10:15:04;;;;;;;0.50;0.50;;;1.70;99.90;;;;;;6216183;23;20040;-72
2023/03/11 10:17:42;;;;;;;0.65;0.65;;;1.90;99.90;;;;;;6216434;23;20009;-72
2023/03/11 10:20:12;;;;;;;0.55;0.55;;;1.80;99.90;;;;;;6215922;23;20017;-69
2023/03/11 10:23:12;;;;;;;0.60;0.60;;;2.00;99.90;;;;;;6214409;23;20020;-70
2023/03/11 10:25:58;;;;;;;0.60;0.60;;;2.10;99.90;;;;;;6214403;23;20017;-69
2023/03/11 10:28:39;;;;;;;0.50;0.50;;;2.10;99.90;;;;;;6214529;23;20047;-69
2023/03/11 10:31:28;;;;;;;0.60;0.60;;;2.20;99.90;;;;;;6216076;23;20437;-69
2023/03/11 10:34:14;;;;;;;0.50;0.50;;;2.20;99.90;;;;;;6216639;23;20013;-68
2023/03/11 10:36:52;;;;;;;0.60;0.60;;;2.30;99.90;;;;;;6216243;23;20040;-70
2023/03/11 10:39:18;;;;;;;0.60;0.60;;;2.30;99.90;;;;;;6214409;23;20023;-70
2023/03/11 10:41:54;;;;;;;0.50;0.50;;;2.50;99.90;;;;;;6214406;23;20070;-69
2023/03/11 10:44:39;;;;;;;0.40;0.40;;;2.40;99.90;;;;;;6214517;23;20021;-69
2023/03/11 10:47:12;;;;;;;0.40;0.40;;;2.60;99.90;;;;;;6214415;23;20354;-68
2023/03/11 10:49:37;;;;;;;0.60;0.60;;;2.60;99.90;;;;;;6214297;23;20080;-68
2023/03/11 10:52:04;;;;;;;0.60;0.60;;;2.60;99.90;;;;;;6216220;23;20047;-69
2023/03/11 10:54:31;;;;;;;0.60;0.60;;;2.70;99.90;;;;;;6214421;23;20012;-69
2023/03/11 10:57:02;;;;;;;0.60;0.60;;;2.70;99.90;;;;;;6214261;23;20017;-69
2023/03/11 10:59:59;;;;;;;0.45;0.45;;;2.80;99.90;;;;;;6216270;23;20464;-70
2023/03/11 11:02:39;;;;;;;0.50;0.50;;;2.80;99.90;;;;;;6188907;23;20079;-74
2023/03/11 11:05:16;;;;;;;0.60;0.60;;;2.90;99.90;;;;;;6214293;23;20495;-72
2023/03/11 11:07:47;;;;;;;0.60;0.60;;;2.90;99.90;;;;;;6214212;23;20035;-70
2023/03/11 11:10:26;;;;;;;0.50;0.50;;;2.90;99.90;;;;;;6214148;23;20040;-70
2023/03/11 11:13:17;;;;;;;0.50;0.50;;;3.00;99.90;;;;;;6189156;23;20438;-70
2023/03/11 11:16:01;;;;;;;0.60;0.60;;;3.10;99.90;;;;;;6214169;23;20455;-70
2023/03/11 11:18:34;;;;;;;0.50;0.50;;;3.20;99.90;;;;;;6215084;23;20013;-69
2023/03/11 11:21:03;;;;;;;0.40;0.40;;;3.30;99.90;;;;;;6239450;23;20438;-69
2023/03/11 11:23:34;;;;;;;0.47;0.47;;;3.30;99.90;;;;;;6239818;23;20021;-69
2023/03/11 11:26:03;;;;;;;0.50;0.50;;;3.30;99.90;;;;;;6215987;23;20013;-69
2023/03/11 11:28:32;;;;;;;0.50;0.50;;;3.30;99.90;;;;;;6216040;23;20009;-70
2023/03/11 11:31:05;;;;;;;0.60;0.60;;;3.30;99.90;;;;;;6216603;23;20023;-69
2023/03/11 11:33:49;;;;;;;0.50;0.50;;;3.40;99.90;;;;;;6191023;23;20013;-69
2023/03/11 11:36:15;;;;;;;0.50;0.50;;;3.60;99.90;;;;;;6215959;23;20083;-69
2023/03/11 11:38:41;;;;;;;0.60;0.60;;;3.60;99.90;;;;;;6215944;23;20048;-69
2023/03/11 11:41:14;;;;;;;0.50;0.50;;;3.80;99.90;;;;;;6217396;23;20071;-69
2023/03/11 11:44:03;;;;;;;0.50;0.50;;;3.80;99.90;;;;;;6217925;23;20008;-70
2023/03/11 11:46:56;;;;;;;0.43;0.43;;;3.90;99.90;;;;;;6216807;23;20017;-70
2023/03/11 11:49:27;;;;;;;0.55;0.55;;;4.00;99.90;;;;;;6190538;23;20019;-70
2023/03/11 11:52:11;;;;;;;0.40;0.40;;;3.90;99.90;;;;;;6217616;23;20024;-71
2023/03/11 11:54:51;;;;;;;0.50;0.50;;;3.90;99.90;;;;;;6217143;23;20098;-69
2023/03/11 11:57:19;;;;;;;0.50;0.50;;;4.00;99.90;;;;;;6215735;23;20013;-69
2023/03/11 11:59:46;;;;;;;0.63;0.63;;;4.10;99.90;;;;;;6215735;23;20084;-69
2023/03/11 12:02:42;;;;;;;0.50;0.50;;;4.10;99.90;;;;;;6217179;23;20020;-69
2023/03/11 12:05:29;;;;;;;0.50;0.50;;;4.10;99.90;;;;;;6217448;23;20069;-69
2023/03/11 12:07:58;;;;;;;0.57;0.57;;;4.10;99.90;;;;;;6217541;23;20019;-70
2023/03/11 12:10:30;;;;;;;0.40;0.40;;;4.10;99.90;;;;;;6217422;23;20020;-70
2023/03/11 12:13:11;;;;;;;0.50;0.50;;;4.30;99.90;;;;;;6215717;23;20020;-70
2023/03/11 12:15:36;;;;;;;0.47;0.47;;;4.50;99.90;;;;;;6217584;23;20436;-70
2023/03/11 12:18:08;;;;;;;0.50;0.50;;;4.60;99.90;;;;;;6215665;23;20016;-70
2023/03/11 12:20:39;;;;;;;0.60;0.60;;;4.80;99.90;;;;;;6215705;23;20373;-71
2023/03/11 12:23:14;;;;;;;0.40;0.40;;;4.90;99.90;;;;;;6217180;23;20056;-70
2023/03/11 12:25:43;;;;;;;0.50;0.50;;;4.90;99.90;;;;;;6217455;23;20012;-71
2023/03/11 12:28:17;;;;;;;0.50;0.50;;;5.10;99.90;;;;;;6215429;23;20012;-70
2023/03/11 12:30:47;;;;;;;0.50;0.50;;;5.20;99.90;;;;;;6215455;23;20021;-70
2023/03/11 12:33:18;;;;;;;0.47;0.47;;;5.10;99.90;;;;;;6215399;23;20283;-71
2023/03/11 12:35:54;;;;;;;0.50;0.50;;;5.20;99.90;;;;;;6190212;23;20342;-70
2023/03/11 12:38:23;;;;;;;0.50;0.50;;;5.20;99.90;;;;;;6216966;23;20111;-71
2023/03/11 12:41:26;;;;;;;0.52;0.52;;;5.50;99.90;;;;;;6215220;23;20023;-70
2023/03/11 12:43:51;;;;;;;0.60;0.60;;;5.80;99.90;;;;;;6216877;23;20016;-71
2023/03/11 12:46:18;;;;;;;0.40;0.40;;;5.80;99.90;;;;;;6215180;23;20016;-71
2023/03/11 12:48:49;;;;;;;0.50;0.50;;;6.00;99.90;;;;;;6217015;23;20016;-71
2023/03/11 12:51:33;;;;;;;0.50;0.50;;;6.20;99.90;;;;;;6217075;23;20018;-71
2023/03/11 12:54:28;;;;;;;0.50;0.50;;;6.00;99.90;;;;;;6216589;23;20468;-71
2023/03/11 12:57:03;;;;;;;0.50;0.50;;;6.20;99.90;;;;;;6217175;23;20341;-71
2023/03/11 12:59:41;;;;;;;0.40;0.40;;;6.20;99.90;;;;;;6217240;23;20054;-71
2023/03/11 13:02:31;;;;;;;0.40;0.40;;;6.40;99.90;;;;;;6217022;23;20016;-71